createdAt,value
2022-10-19T00:09:10.562Z,11.16
2022-10-19T00:18:47.776Z,11.26
2022-10-19T00:28:25.500Z,11.21
2022-10-19T00:38:01.976Z,11.15
2022-10-19T00:47:39.115Z,11.16
2022-10-19T00:57:17.917Z,10.91
2022-10-19T01:06:53.793Z,10.91
2022-10-19T01:16:32.899Z,10.87
2022-10-19T01:26:08.586Z,10.91
2022-10-19T01:35:45.725Z,10.88
2022-10-19T01:45:23.667Z,10.78
2022-10-19T01:55:00.450Z,10.69
2022-10-19T02:04:37.429Z,10.47
2022-10-19T02:14:14.991Z,10.38
2022-10-19T02:23:54.078Z,10.11
2022-10-19T02:33:27.686Z,10.26
2022-10-19T02:43:05.741Z,10.34
2022-10-19T02:52:42.756Z,10.42
2022-10-19T03:02:20.837Z,10.1
2022-10-19T03:12:00.232Z,10.2
2022-10-19T03:21:36.238Z,10.29
2022-10-19T03:31:12.517Z,10.25
2022-10-19T03:40:51.405Z,10.27
2022-10-19T03:50:29.103Z,10.29
2022-10-19T04:00:04.948Z,10.35
2022-10-19T04:09:41.910Z,10.24
2022-10-19T04:19:18.826Z,10.24
2022-10-19T04:28:56.115Z,10.14
2022-10-19T04:38:32.883Z,9.92
2022-10-19T04:48:10.584Z,9.77
2022-10-19T04:57:46.664Z,9.67
2022-10-19T05:07:23.561Z,9.63
2022-10-19T05:17:00.739Z,9.7
2022-10-19T05:26:39.159Z,9.74
2022-10-19T05:36:15.486Z,9.62
2022-10-19T05:45:53.130Z,9.44
2022-10-19T05:55:29.498Z,9.29
2022-10-19T06:05:06.365Z,9.1
2022-10-19T06:14:43.336Z,9.21
2022-10-19T06:24:21.056Z,9.37
2022-10-19T06:33:58.591Z,9.45
2022-10-19T06:43:35.504Z,9.57
2022-10-19T06:53:13.249Z,9.71
2022-10-19T07:02:51.145Z,9.75
2022-10-19T07:12:28.477Z,9.9
2022-10-19T07:22:06.065Z,10.05
2022-10-19T07:31:43.550Z,10
2022-10-19T07:41:20.631Z,10.1
2022-10-19T07:50:58.692Z,10.29
2022-10-19T08:00:36.580Z,10.71
2022-10-19T08:10:14.282Z,11.11
2022-10-19T08:19:52.236Z,10.9
2022-10-19T08:29:31.373Z,10.99
2022-10-19T08:39:09.758Z,11.89
2022-10-19T08:48:46.897Z,11.54
2022-10-19T08:58:23.538Z,11.3
2022-10-19T09:07:59.816Z,11.16
2022-10-19T09:27:14.179Z,11.14
2022-10-19T09:36:52.498Z,11.49
2022-10-19T09:46:30.042Z,11.39
2022-10-19T09:56:08.749Z,11.76
2022-10-19T10:05:47.410Z,11.79
2022-10-19T10:25:01.358Z,12.41
2022-10-19T10:34:49.721Z,12.72
2022-10-19T10:44:17.991Z,12.74
2022-10-19T10:53:55.371Z,12.49
2022-10-19T11:03:32.168Z,12.68
2022-10-19T11:13:09.536Z,12.77
2022-10-19T11:22:48.307Z,13.02
2022-10-19T11:32:28.302Z,12.89
2022-10-19T11:42:03.751Z,13.68
2022-10-19T11:51:39.746Z,13.21
2022-10-19T12:01:15.795Z,13.34
2022-10-19T12:10:52.096Z,12.92
2022-10-19T12:20:29.919Z,12.74
2022-10-19T12:30:07.793Z,12.77
2022-10-19T12:49:29.439Z,13.52
2022-10-19T12:59:04.017Z,13.59
2022-10-19T13:08:41.095Z,13.18
2022-10-19T13:18:18.861Z,13.34
2022-10-19T13:27:57.874Z,13.17
2022-10-19T13:37:34.746Z,12.95
2022-10-19T13:47:09.061Z,12.56
2022-10-19T13:56:45.503Z,12.53
2022-10-19T14:06:23.562Z,12.63
2022-10-19T14:16:01.828Z,12.17
2022-10-19T14:25:38.259Z,12.25
2022-10-19T14:35:14.457Z,12.18
2022-10-19T14:44:50.709Z,11.57
2022-10-19T14:54:26.894Z,11.65
2022-10-19T15:04:03.755Z,11.52
2022-10-19T15:13:40.162Z,11.3
2022-10-19T15:23:17.759Z,11.1
2022-10-19T15:32:53.210Z,10.85
2022-10-19T15:42:29.613Z,10.75
2022-10-19T15:52:06.526Z,10.59
2022-10-19T16:01:42.968Z,10.33
2022-10-19T16:11:19.512Z,10.14
2022-10-19T16:20:56.417Z,10.17
2022-10-19T16:30:33.243Z,9.98
2022-10-19T16:40:10.320Z,9.91
2022-10-19T16:49:46.844Z,9.88
2022-10-19T16:59:23.892Z,9.86
2022-10-19T17:09:30.096Z,9.87
2022-10-19T17:18:38.524Z,9.78
2022-10-19T17:28:15.350Z,9.69
2022-10-19T17:37:52.442Z,9.56
2022-10-19T17:47:29.578Z,9.4
2022-10-19T17:57:07.977Z,9.2
2022-10-19T18:16:18.264Z,8.22
2022-10-19T18:25:56.356Z,7.85
2022-10-19T18:35:31.260Z,7.51
2022-10-19T18:45:08.321Z,6.9
2022-10-19T18:54:43.710Z,6.63
2022-10-19T19:04:19.652Z,6.44
2022-10-19T19:13:55.801Z,6.18
2022-10-19T19:23:34.675Z,5.87
2022-10-19T19:33:09.378Z,5.71
2022-10-19T19:42:45.725Z,5.32
2022-10-19T19:52:23.720Z,5.04
2022-10-19T20:01:58.725Z,5.02
2022-10-19T20:11:41.210Z,4.83
2022-10-19T20:21:12.023Z,4.82
2022-10-19T20:30:50.703Z,4.55
2022-10-19T20:40:25.737Z,4.39
2022-10-19T20:59:39.030Z,4.03
2022-10-19T21:09:15.733Z,3.76
2022-10-19T21:18:53.392Z,3.81
2022-10-19T21:28:29.361Z,3.5
2022-10-19T21:38:05.815Z,3.51
2022-10-19T21:47:44.743Z,3.51
2022-10-19T21:57:20.279Z,3.36
2022-10-19T22:06:56.639Z,3.19
2022-10-19T22:16:32.633Z,3.02
2022-10-19T22:26:08.838Z,3.08
2022-10-19T22:35:45.750Z,2.91
2022-10-19T22:45:22.570Z,2.84
2022-10-19T22:54:59.375Z,3.23
2022-10-19T23:04:36.322Z,2.81
2022-10-19T23:14:13.343Z,2.73
2022-10-19T23:23:49.509Z,2.75
2022-10-19T23:33:28.570Z,2.47
2022-10-19T23:43:03.673Z,2.32
2022-10-19T23:52:40.326Z,2.55
